sensor_id;sensor_type;location;lat;lon;timestamp;P1;durP1;ratioP1;P2;durP2;ratioP2
71464;SDS011;59274;49.874;9.154;2023-06-05T00:00:52;6.35;;;1.80;;
71464;SDS011;59274;49.874;9.154;2023-06-05T00:03:18;4.30;;;1.53;;
71464;SDS011;59274;49.874;9.154;2023-06-05T00:05:43;4.03;;;1.73;;
71464;SDS011;59274;49.874;9.154;2023-06-05T00:08:09;4.33;;;1.77;;
71464;SDS011;59274;49.874;9.154;2023-06-05T00:10:34;3.70;;;1.88;;
71464;SDS011;59274;49.874;9.154;2023-06-05T00:12:59;4.37;;;1.90;;
71464;SDS011;59274;49.874;9.154;2023-06-05T00:15:25;4.77;;;2.03;;
71464;SDS011;59274;49.874;9.154;2023-06-05T00:17:50;3.67;;;1.87;;
71464;SDS011;59274;49.874;9.154;2023-06-05T00:20:16;5.13;;;1.73;;
71464;SDS011;59274;49.874;9.154;2023-06-05T00:22:42;3.07;;;1.80;;
71464;SDS011;59274;49.874;9.154;2023-06-05T00:25:09;5.05;;;1.80;;
71464;SDS011;59274;49.874;9.154;2023-06-05T00:27:35;2.55;;;1.58;;
71464;SDS011;59274;49.874;9.154;2023-06-05T00:30:00;3.33;;;1.50;;
71464;SDS011;59274;49.874;9.154;2023-06-05T00:32:26;3.67;;;1.60;;
71464;SDS011;59274;49.874;9.154;2023-06-05T00:34:51;3.33;;;1.90;;
71464;SDS011;59274;49.874;9.154;2023-06-05T00:37:19;4.47;;;1.70;;
71464;SDS011;59274;49.874;9.154;2023-06-05T00:39:45;5.78;;;1.85;;
71464;SDS011;59274;49.874;9.154;2023-06-05T00:42:10;3.33;;;1.47;;
71464;SDS011;59274;49.874;9.154;2023-06-05T00:44:36;3.70;;;1.63;;
71464;SDS011;59274;49.874;9.154;2023-06-05T00:47:01;2.40;;;1.30;;
71464;SDS011;59274;49.874;9.154;2023-06-05T00:49:29;2.35;;;1.20;;
71464;SDS011;59274;49.874;9.154;2023-06-05T00:51:55;3.42;;;1.70;;
71464;SDS011;59274;49.874;9.154;2023-06-05T00:54:21;3.63;;;1.33;;
71464;SDS011;59274;49.874;9.154;2023-06-05T00:56:47;3.47;;;1.60;;
71464;SDS011;59274;49.874;9.154;2023-06-05T00:59:13;2.75;;;1.27;;
71464;SDS011;59274;49.874;9.154;2023-06-05T01:01:39;2.97;;;1.40;;
71464;SDS011;59274;49.874;9.154;2023-06-05T01:04:08;4.50;;;1.35;;
71464;SDS011;59274;49.874;9.154;2023-06-05T01:06:34;2.45;;;1.40;;
71464;SDS011;59274;49.874;9.154;2023-06-05T01:09:01;3.10;;;1.20;;
71464;SDS011;59274;49.874;9.154;2023-06-05T01:14:14;2.90;;;1.38;;
71464;SDS011;59274;49.874;9.154;2023-06-05T01:16:47;2.83;;;1.15;;
71464;SDS011;59274;49.874;9.154;2023-06-05T01:19:21;1.98;;;1.20;;
71464;SDS011;59274;49.874;9.154;2023-06-05T01:21:50;1.77;;;0.70;;
71464;SDS011;59274;49.874;9.154;2023-06-05T01:24:16;2.60;;;1.25;;
71464;SDS011;59274;49.874;9.154;2023-06-05T01:32:21;1.60;;;1.00;;
71464;SDS011;59274;49.874;9.154;2023-06-05T01:34:50;4.47;;;1.40;;
71464;SDS011;59274;49.874;9.154;2023-06-05T01:37:18;2.42;;;1.20;;
71464;SDS011;59274;49.874;9.154;2023-06-05T01:39:50;3.40;;;1.20;;
71464;SDS011;59274;49.874;9.154;2023-06-05T01:42:16;3.35;;;1.50;;
71464;SDS011;59274;49.874;9.154;2023-06-05T01:44:42;3.03;;;1.53;;
71464;SDS011;59274;49.874;9.154;2023-06-05T01:47:07;2.20;;;1.08;;
71464;SDS011;59274;49.874;9.154;2023-06-05T01:49:33;2.93;;;1.23;;
71464;SDS011;59274;49.874;9.154;2023-06-05T01:51:59;2.72;;;1.20;;
71464;SDS011;59274;49.874;9.154;2023-06-05T01:54:25;3.50;;;1.60;;
71464;SDS011;59274;49.874;9.154;2023-06-05T01:56:51;4.18;;;1.83;;
71464;SDS011;59274;49.874;9.154;2023-06-05T01:59:18;3.38;;;1.75;;
71464;SDS011;59274;49.874;9.154;2023-06-05T02:01:44;5.37;;;1.80;;
71464;SDS011;59274;49.874;9.154;2023-06-05T02:04:10;3.03;;;1.65;;
71464;SDS011;59274;49.874;9.154;2023-06-05T02:06:35;4.70;;;1.90;;
71464;SDS011;59274;49.874;9.154;2023-06-05T02:09:08;4.22;;;1.80;;
71464;SDS011;59274;49.874;9.154;2023-06-05T02:11:37;4.78;;;1.73;;
71464;SDS011;59274;49.874;9.154;2023-06-05T02:14:04;4.75;;;2.08;;
71464;SDS011;59274;49.874;9.154;2023-06-05T02:16:31;3.93;;;1.63;;
71464;SDS011;59274;49.874;9.154;2023-06-05T02:18:58;4.55;;;1.80;;
71464;SDS011;59274;49.874;9.154;2023-06-05T02:21:28;5.55;;;1.65;;
71464;SDS011;59274;49.874;9.154;2023-06-05T02:23:55;5.95;;;2.30;;
71464;SDS011;59274;49.874;9.154;2023-06-05T02:26:22;5.22;;;2.13;;
71464;SDS011;59274;49.874;9.154;2023-06-05T02:28:48;3.80;;;1.77;;
71464;SDS011;59274;49.874;9.154;2023-06-05T02:31:13;4.50;;;1.80;;
71464;SDS011;59274;49.874;9.154;2023-06-05T02:33:41;5.53;;;2.42;;
71464;SDS011;59274;49.874;9.154;2023-06-05T02:36:06;4.55;;;1.60;;
71464;SDS011;59274;49.874;9.154;2023-06-05T02:38:32;6.63;;;1.83;;
71464;SDS011;59274;49.874;9.154;2023-06-05T02:40:58;5.07;;;2.05;;
71464;SDS011;59274;49.874;9.154;2023-06-05T02:43:24;3.10;;;1.88;;
71464;SDS011;59274;49.874;9.154;2023-06-05T02:45:50;7.17;;;1.80;;
71464;SDS011;59274;49.874;9.154;2023-06-05T02:48:16;3.57;;;1.80;;
71464;SDS011;59274;49.874;9.154;2023-06-05T02:50:41;3.97;;;1.83;;
71464;SDS011;59274;49.874;9.154;2023-06-05T02:53:06;3.23;;;1.57;;
71464;SDS011;59274;49.874;9.154;2023-06-05T02:55:32;4.10;;;1.93;;
71464;SDS011;59274;49.874;9.154;2023-06-05T02:57:57;5.93;;;1.90;;
71464;SDS011;59274;49.874;9.154;2023-06-05T03:00:23;3.40;;;1.50;;
71464;SDS011;59274;49.874;9.154;2023-06-05T03:02:50;3.25;;;1.50;;
71464;SDS011;59274;49.874;9.154;2023-06-05T03:05:16;6.50;;;1.95;;
71464;SDS011;59274;49.874;9.154;2023-06-05T03:07:43;4.87;;;2.07;;
71464;SDS011;59274;49.874;9.154;2023-06-05T03:10:08;5.68;;;1.63;;
71464;SDS011;59274;49.874;9.154;2023-06-05T03:12:34;4.40;;;1.90;;
71464;SDS011;59274;49.874;9.154;2023-06-05T03:14:59;3.43;;;1.50;;
71464;SDS011;59274;49.874;9.154;2023-06-05T03:17:25;3.53;;;1.40;;
71464;SDS011;59274;49.874;9.154;2023-06-05T03:19:53;3.13;;;1.65;;
71464;SDS011;59274;49.874;9.154;2023-06-05T03:22:18;3.47;;;1.50;;
71464;SDS011;59274;49.874;9.154;2023-06-05T03:24:45;4.55;;;1.95;;
71464;SDS011;59274;49.874;9.154;2023-06-05T03:27:10;5.68;;;1.95;;
71464;SDS011;59274;49.874;9.154;2023-06-05T03:29:36;3.35;;;1.83;;
71464;SDS011;59274;49.874;9.154;2023-06-05T03:32:02;4.68;;;1.90;;
71464;SDS011;59274;49.874;9.154;2023-06-05T03:34:27;6.07;;;2.23;;
71464;SDS011;59274;49.874;9.154;2023-06-05T03:36:54;3.20;;;2.13;;
71464;SDS011;59274;49.874;9.154;2023-06-05T03:39:24;5.25;;;2.15;;
71464;SDS011;59274;49.874;9.154;2023-06-05T03:41:50;5.75;;;1.83;;
71464;SDS011;59274;49.874;9.154;2023-06-05T03:44:15;3.27;;;1.90;;
71464;SDS011;59274;49.874;9.154;2023-06-05T03:46:41;3.80;;;1.80;;
71464;SDS011;59274;49.874;9.154;2023-06-05T03:49:06;3.90;;;1.70;;
71464;SDS011;59274;49.874;9.154;2023-06-05T03:51:34;6.40;;;2.10;;
71464;SDS011;59274;49.874;9.154;2023-06-05T03:54:01;5.43;;;1.97;;
71464;SDS011;59274;49.874;9.154;2023-06-05T03:56:26;3.10;;;1.77;;
71464;SDS011;59274;49.874;9.154;2023-06-05T03:59:07;5.50;;;2.20;;
71464;SDS011;59274;49.874;9.154;2023-06-05T04:01:41;6.68;;;2.28;;
71464;SDS011;59274;49.874;9.154;2023-06-05T04:04:06;4.50;;;1.70;;
71464;SDS011;59274;49.874;9.154;2023-06-05T04:06:33;4.97;;;1.90;;
71464;SDS011;59274;49.874;9.154;2023-06-05T04:08:59;5.00;;;2.33;;
71464;SDS011;59274;49.874;9.154;2023-06-05T04:11:25;4.10;;;2.15;;
71464;SDS011;59274;49.874;9.154;2023-06-05T04:13:54;6.00;;;1.93;;
71464;SDS011;59274;49.874;9.154;2023-06-05T04:16:20;7.00;;;2.10;;
71464;SDS011;59274;49.874;9.154;2023-06-05T04:18:45;6.50;;;2.05;;
71464;SDS011;59274;49.874;9.154;2023-06-05T04:21:11;4.03;;;1.70;;
71464;SDS011;59274;49.874;9.154;2023-06-05T04:23:36;3.77;;;1.70;;
71464;SDS011;59274;49.874;9.154;2023-06-05T04:26:01;3.93;;;1.90;;
71464;SDS011;59274;49.874;9.154;2023-06-05T04:28:28;4.95;;;2.15;;
71464;SDS011;59274;49.874;9.154;2023-06-05T04:30:54;3.20;;;1.65;;
71464;SDS011;59274;49.874;9.154;2023-06-05T04:33:21;4.40;;;2.13;;
71464;SDS011;59274;49.874;9.154;2023-06-05T04:35:46;4.25;;;2.05;;
71464;SDS011;59274;49.874;9.154;2023-06-05T04:38:12;3.60;;;1.60;;
71464;SDS011;59274;49.874;9.154;2023-06-05T04:40:37;4.43;;;1.77;;
71464;SDS011;59274;49.874;9.154;2023-06-05T04:43:03;3.63;;;1.90;;
71464;SDS011;59274;49.874;9.154;2023-06-05T04:45:28;5.33;;;2.47;;
71464;SDS011;59274;49.874;9.154;2023-06-05T04:47:53;7.57;;;2.70;;
71464;SDS011;59274;49.874;9.154;2023-06-05T04:50:23;4.30;;;1.93;;
71464;SDS011;59274;49.874;9.154;2023-06-05T04:52:52;6.70;;;2.50;;
71464;SDS011;59274;49.874;9.154;2023-06-05T04:55:18;2.88;;;1.60;;
71464;SDS011;59274;49.874;9.154;2023-06-05T04:57:45;9.88;;;2.72;;
71464;SDS011;59274;49.874;9.154;2023-06-05T05:00:11;5.40;;;2.07;;
71464;SDS011;59274;49.874;9.154;2023-06-05T05:02:37;5.47;;;2.55;;
71464;SDS011;59274;49.874;9.154;2023-06-05T05:05:02;3.53;;;1.80;;
71464;SDS011;59274;49.874;9.154;2023-06-05T05:07:27;4.93;;;1.92;;
71464;SDS011;59274;49.874;9.154;2023-06-05T05:09:53;4.67;;;1.63;;
71464;SDS011;59274;49.874;9.154;2023-06-05T05:12:19;4.63;;;1.97;;
71464;SDS011;59274;49.874;9.154;2023-06-05T05:14:44;5.68;;;2.00;;
71464;SDS011;59274;49.874;9.154;2023-06-05T05:17:10;5.07;;;2.23;;
71464;SDS011;59274;49.874;9.154;2023-06-05T05:19:36;3.67;;;1.90;;
71464;SDS011;59274;49.874;9.154;2023-06-05T05:22:05;6.68;;;2.75;;
71464;SDS011;59274;49.874;9.154;2023-06-05T05:24:31;3.43;;;1.87;;
71464;SDS011;59274;49.874;9.154;2023-06-05T05:26:57;4.75;;;2.17;;
71464;SDS011;59274;49.874;9.154;2023-06-05T05:29:22;3.20;;;1.88;;
71464;SDS011;59274;49.874;9.154;2023-06-05T05:31:47;4.33;;;1.50;;
71464;SDS011;59274;49.874;9.154;2023-06-05T05:34:13;5.33;;;2.33;;
71464;SDS011;59274;49.874;9.154;2023-06-05T05:36:38;3.70;;;1.50;;
71464;SDS011;59274;49.874;9.154;2023-06-05T05:39:04;3.33;;;1.73;;
71464;SDS011;59274;49.874;9.154;2023-06-05T05:41:29;4.35;;;1.75;;
71464;SDS011;59274;49.874;9.154;2023-06-05T05:43:55;3.37;;;1.50;;
71464;SDS011;59274;49.874;9.154;2023-06-05T05:46:20;5.63;;;1.98;;
71464;SDS011;59274;49.874;9.154;2023-06-05T05:48:46;4.57;;;1.80;;
71464;SDS011;59274;49.874;9.154;2023-06-05T05:51:11;6.13;;;2.03;;
71464;SDS011;59274;49.874;9.154;2023-06-05T05:53:37;4.13;;;1.83;;
71464;SDS011;59274;49.874;9.154;2023-06-05T05:56:02;5.20;;;2.28;;
71464;SDS011;59274;49.874;9.154;2023-06-05T05:58:31;4.47;;;2.33;;
71464;SDS011;59274;49.874;9.154;2023-06-05T06:00:56;4.90;;;2.05;;
71464;SDS011;59274;49.874;9.154;2023-06-05T06:03:23;4.57;;;2.28;;
71464;SDS011;59274;49.874;9.154;2023-06-05T06:05:48;5.00;;;2.20;;
71464;SDS011;59274;49.874;9.154;2023-06-05T06:08:14;5.80;;;2.40;;
71464;SDS011;59274;49.874;9.154;2023-06-05T06:10:40;7.60;;;3.03;;
71464;SDS011;59274;49.874;9.154;2023-06-05T06:13:06;6.13;;;2.70;;
71464;SDS011;59274;49.874;9.154;2023-06-05T06:15:31;5.55;;;2.17;;
71464;SDS011;59274;49.874;9.154;2023-06-05T06:17:57;4.77;;;2.30;;
71464;SDS011;59274;49.874;9.154;2023-06-05T06:20:25;5.93;;;2.55;;
71464;SDS011;59274;49.874;9.154;2023-06-05T06:22:50;7.90;;;2.60;;
71464;SDS011;59274;49.874;9.154;2023-06-05T06:25:16;5.10;;;2.27;;
71464;SDS011;59274;49.874;9.154;2023-06-05T06:27:43;8.82;;;2.63;;
71464;SDS011;59274;49.874;9.154;2023-06-05T06:30:11;6.68;;;2.25;;
71464;SDS011;59274;49.874;9.154;2023-06-05T06:32:37;7.43;;;2.30;;
71464;SDS011;59274;49.874;9.154;2023-06-05T06:35:02;6.88;;;2.83;;
71464;SDS011;59274;49.874;9.154;2023-06-05T06:37:28;4.32;;;1.90;;
71464;SDS011;59274;49.874;9.154;2023-06-05T06:39:54;6.77;;;2.10;;
71464;SDS011;59274;49.874;9.154;2023-06-05T06:42:19;5.20;;;2.57;;
71464;SDS011;59274;49.874;9.154;2023-06-05T06:44:45;3.30;;;1.70;;
71464;SDS011;59274;49.874;9.154;2023-06-05T06:47:10;5.23;;;2.10;;
71464;SDS011;59274;49.874;9.154;2023-06-05T06:49:37;4.30;;;2.07;;
71464;SDS011;59274;49.874;9.154;2023-06-05T06:52:03;3.00;;;1.75;;
71464;SDS011;59274;49.874;9.154;2023-06-05T06:54:28;4.80;;;2.08;;
71464;SDS011;59274;49.874;9.154;2023-06-05T06:56:55;4.93;;;1.93;;
71464;SDS011;59274;49.874;9.154;2023-06-05T06:59:21;4.85;;;1.90;;
71464;SDS011;59274;49.874;9.154;2023-06-05T07:01:48;6.40;;;1.88;;
71464;SDS011;59274;49.874;9.154;2023-06-05T07:04:33;4.78;;;1.65;;
71464;SDS011;59274;49.874;9.154;2023-06-05T07:07:02;4.43;;;2.07;;
71464;SDS011;59274;49.874;9.154;2023-06-05T07:09:28;4.40;;;1.50;;
71464;SDS011;59274;49.874;9.154;2023-06-05T07:11:54;5.60;;;2.03;;
71464;SDS011;59274;49.874;9.154;2023-06-05T07:14:19;4.53;;;1.50;;
71464;SDS011;59274;49.874;9.154;2023-06-05T07:16:45;5.07;;;2.00;;
71464;SDS011;59274;49.874;9.154;2023-06-05T07:19:11;5.75;;;2.13;;
71464;SDS011;59274;49.874;9.154;2023-06-05T07:21:37;5.00;;;2.00;;
71464;SDS011;59274;49.874;9.154;2023-06-05T07:24:03;4.87;;;2.17;;
71464;SDS011;59274;49.874;9.154;2023-06-05T07:26:29;4.82;;;1.95;;
71464;SDS011;59274;49.874;9.154;2023-06-05T07:28:55;4.75;;;2.35;;
71464;SDS011;59274;49.874;9.154;2023-06-05T07:31:20;5.20;;;2.27;;
71464;SDS011;59274;49.874;9.154;2023-06-05T07:33:46;4.43;;;1.87;;
71464;SDS011;59274;49.874;9.154;2023-06-05T07:36:12;4.93;;;1.92;;
71464;SDS011;59274;49.874;9.154;2023-06-05T07:38:39;5.00;;;1.73;;
71464;SDS011;59274;49.874;9.154;2023-06-05T07:41:05;4.70;;;1.83;;
71464;SDS011;59274;49.874;9.154;2023-06-05T07:43:31;3.05;;;1.55;;
71464;SDS011;59274;49.874;9.154;2023-06-05T07:45:57;4.25;;;1.85;;
71464;SDS011;59274;49.874;9.154;2023-06-05T07:48:22;5.75;;;1.80;;
71464;SDS011;59274;49.874;9.154;2023-06-05T07:50:48;3.20;;;1.73;;
71464;SDS011;59274;49.874;9.154;2023-06-05T07:53:13;3.67;;;1.67;;
71464;SDS011;59274;49.874;9.154;2023-06-05T07:55:39;2.40;;;1.10;;
71464;SDS011;59274;49.874;9.154;2023-06-05T07:58:05;5.83;;;1.70;;
71464;SDS011;59274;49.874;9.154;2023-06-05T08:00:30;2.80;;;1.30;;
71464;SDS011;59274;49.874;9.154;2023-06-05T08:02:56;3.63;;;1.60;;
71464;SDS011;59274;49.874;9.154;2023-06-05T08:05:22;2.05;;;1.17;;
71464;SDS011;59274;49.874;9.154;2023-06-05T08:07:48;3.83;;;1.63;;
71464;SDS011;59274;49.874;9.154;2023-06-05T08:10:13;2.33;;;1.33;;
71464;SDS011;59274;49.874;9.154;2023-06-05T08:12:39;3.40;;;1.45;;
71464;SDS011;59274;49.874;9.154;2023-06-05T08:15:06;3.17;;;1.43;;
71464;SDS011;59274;49.874;9.154;2023-06-05T08:17:32;3.20;;;1.23;;
71464;SDS011;59274;49.874;9.154;2023-06-05T08:19:57;4.22;;;1.45;;
71464;SDS011;59274;49.874;9.154;2023-06-05T08:22:23;3.20;;;1.60;;
71464;SDS011;59274;49.874;9.154;2023-06-05T08:24:48;1.93;;;1.30;;
71464;SDS011;59274;49.874;9.154;2023-06-05T08:27:16;2.15;;;1.20;;
71464;SDS011;59274;49.874;9.154;2023-06-05T08:29:42;2.55;;;1.20;;
71464;SDS011;59274;49.874;9.154;2023-06-05T08:32:07;3.43;;;1.47;;
71464;SDS011;59274;49.874;9.154;2023-06-05T08:34:33;4.17;;;1.70;;
71464;SDS011;59274;49.874;9.154;2023-06-05T08:36:58;2.47;;;1.43;;
71464;SDS011;59274;49.874;9.154;2023-06-05T08:39:24;3.08;;;1.50;;
71464;SDS011;59274;49.874;9.154;2023-06-05T08:41:54;2.67;;;1.50;;
71464;SDS011;59274;49.874;9.154;2023-06-05T08:44:25;4.07;;;1.33;;
71464;SDS011;59274;49.874;9.154;2023-06-05T08:46:51;2.63;;;1.38;;
71464;SDS011;59274;49.874;9.154;2023-06-05T08:49:19;3.25;;;1.40;;
71464;SDS011;59274;49.874;9.154;2023-06-05T08:51:49;2.83;;;1.50;;
71464;SDS011;59274;49.874;9.154;2023-06-05T08:54:17;2.63;;;1.53;;
71464;SDS011;59274;49.874;9.154;2023-06-05T08:56:44;5.95;;;1.65;;
71464;SDS011;59274;49.874;9.154;2023-06-05T08:59:11;2.83;;;1.40;;
71464;SDS011;59274;49.874;9.154;2023-06-05T09:01:39;4.13;;;1.70;;
71464;SDS011;59274;49.874;9.154;2023-06-05T09:04:05;2.90;;;1.57;;
71464;SDS011;59274;49.874;9.154;2023-06-05T09:06:31;3.72;;;1.67;;
71464;SDS011;59274;49.874;9.154;2023-06-05T09:08:59;2.47;;;1.58;;
71464;SDS011;59274;49.874;9.154;2023-06-05T09:11:29;3.28;;;1.80;;
71464;SDS011;59274;49.874;9.154;2023-06-05T09:13:57;2.10;;;1.30;;
71464;SDS011;59274;49.874;9.154;2023-06-05T09:18:59;3.70;;;1.40;;
71464;SDS011;59274;49.874;9.154;2023-06-05T09:21:25;3.10;;;1.50;;
71464;SDS011;59274;49.874;9.154;2023-06-05T09:29:36;3.85;;;1.40;;
71464;SDS011;59274;49.874;9.154;2023-06-05T09:32:07;3.15;;;1.30;;
71464;SDS011;59274;49.874;9.154;2023-06-05T09:34:34;3.83;;;1.63;;
71464;SDS011;59274;49.874;9.154;2023-06-05T09:37:10;2.80;;;1.45;;
71464;SDS011;59274;49.874;9.154;2023-06-05T09:39:37;4.30;;;1.30;;
71464;SDS011;59274;49.874;9.154;2023-06-05T09:42:04;2.53;;;1.23;;
71464;SDS011;59274;49.874;9.154;2023-06-05T09:44:31;2.83;;;1.38;;
71464;SDS011;59274;49.874;9.154;2023-06-05T09:52:06;1.92;;;1.13;;
71464;SDS011;59274;49.874;9.154;2023-06-05T09:54:32;3.47;;;1.27;;
71464;SDS011;59274;49.874;9.154;2023-06-05T09:57:02;3.70;;;1.50;;
71464;SDS011;59274;49.874;9.154;2023-06-05T09:59:29;4.30;;;1.50;;
71464;SDS011;59274;49.874;9.154;2023-06-05T10:01:57;4.22;;;1.38;;
71464;SDS011;59274;49.874;9.154;2023-06-05T10:04:27;2.58;;;1.40;;
71464;SDS011;59274;49.874;9.154;2023-06-05T10:06:55;2.85;;;1.30;;
71464;SDS011;59274;49.874;9.154;2023-06-05T10:09:25;2.25;;;1.30;;
71464;SDS011;59274;49.874;9.154;2023-06-05T10:11:51;3.42;;;1.60;;
71464;SDS011;59274;49.874;9.154;2023-06-05T10:14:20;2.90;;;1.40;;
71464;SDS011;59274;49.874;9.154;2023-06-05T10:16:49;2.20;;;1.20;;
71464;SDS011;59274;49.874;9.154;2023-06-05T10:19:17;2.67;;;1.38;;
71464;SDS011;59274;49.874;9.154;2023-06-05T10:21:45;1.58;;;1.10;;
71464;SDS011;59274;49.874;9.154;2023-06-05T10:24:13;3.13;;;1.30;;
71464;SDS011;59274;49.874;9.154;2023-06-05T10:29:52;2.80;;;1.42;;
71464;SDS011;59274;49.874;9.154;2023-06-05T10:32:16;3.50;;;1.40;;
71464;SDS011;59274;49.874;9.154;2023-06-05T10:40:23;2.47;;;1.30;;
71464;SDS011;59274;49.874;9.154;2023-06-05T10:42:50;3.60;;;1.38;;
71464;SDS011;59274;49.874;9.154;2023-06-05T10:45:31;2.92;;;1.30;;
71464;SDS011;59274;49.874;9.154;2023-06-05T10:48:00;3.58;;;1.40;;
71464;SDS011;59274;49.874;9.154;2023-06-05T10:50:26;2.90;;;1.48;;
71464;SDS011;59274;49.874;9.154;2023-06-05T10:52:53;3.08;;;1.23;;
71464;SDS011;59274;49.874;9.154;2023-06-05T10:55:21;2.33;;;1.40;;
71464;SDS011;59274;49.874;9.154;2023-06-05T11:00:25;2.45;;;1.50;;
71464;SDS011;59274;49.874;9.154;2023-06-05T11:02:51;3.83;;;1.30;;
71464;SDS011;59274;49.874;9.154;2023-06-05T11:05:18;3.80;;;1.83;;
71464;SDS011;59274;49.874;9.154;2023-06-05T11:07:44;2.67;;;1.50;;
71464;SDS011;59274;49.874;9.154;2023-06-05T11:10:11;2.58;;;1.50;;
71464;SDS011;59274;49.874;9.154;2023-06-05T11:17:37;3.03;;;1.30;;
71464;SDS011;59274;49.874;9.154;2023-06-05T11:20:05;3.58;;;1.60;;
71464;SDS011;59274;49.874;9.154;2023-06-05T11:23:20;2.92;;;1.42;;
71464;SDS011;59274;49.874;9.154;2023-06-05T11:27:47;3.17;;;1.53;;
71464;SDS011;59274;49.874;9.154;2023-06-05T11:30:17;3.42;;;1.50;;
71464;SDS011;59274;49.874;9.154;2023-06-05T11:32:44;3.40;;;1.77;;
71464;SDS011;59274;49.874;9.154;2023-06-05T11:35:10;3.60;;;1.30;;
71464;SDS011;59274;49.874;9.154;2023-06-05T11:37:37;3.45;;;1.20;;
71464;SDS011;59274;49.874;9.154;2023-06-05T11:40:03;4.07;;;1.55;;
71464;SDS011;59274;49.874;9.154;2023-06-05T11:42:33;2.72;;;1.35;;
71464;SDS011;59274;49.874;9.154;2023-06-05T11:44:59;3.07;;;1.63;;
71464;SDS011;59274;49.874;9.154;2023-06-05T11:47:24;2.40;;;1.50;;
71464;SDS011;59274;49.874;9.154;2023-06-05T11:49:51;3.03;;;1.50;;
71464;SDS011;59274;49.874;9.154;2023-06-05T11:52:20;2.63;;;1.30;;
71464;SDS011;59274;49.874;9.154;2023-06-05T11:54:47;3.28;;;1.55;;
71464;SDS011;59274;49.874;9.154;2023-06-05T11:57:43;3.13;;;1.50;;
71464;SDS011;59274;49.874;9.154;2023-06-05T12:00:09;2.95;;;1.30;;
71464;SDS011;59274;49.874;9.154;2023-06-05T12:02:38;2.28;;;1.35;;
71464;SDS011;59274;49.874;9.154;2023-06-05T12:05:06;2.67;;;1.50;;
71464;SDS011;59274;49.874;9.154;2023-06-05T12:07:33;2.88;;;1.40;;
71464;SDS011;59274;49.874;9.154;2023-06-05T12:10:05;3.45;;;1.63;;
71464;SDS011;59274;49.874;9.154;2023-06-05T12:12:35;2.80;;;1.42;;
71464;SDS011;59274;49.874;9.154;2023-06-05T12:15:18;1.95;;;1.40;;
71464;SDS011;59274;49.874;9.154;2023-06-05T12:17:54;2.67;;;1.43;;
71464;SDS011;59274;49.874;9.154;2023-06-05T12:20:21;2.50;;;1.40;;
71464;SDS011;59274;49.874;9.154;2023-06-05T12:22:47;2.88;;;1.55;;
71464;SDS011;59274;49.874;9.154;2023-06-05T12:25:16;2.33;;;1.42;;
71464;SDS011;59274;49.874;9.154;2023-06-05T12:27:51;2.65;;;1.58;;
71464;SDS011;59274;49.874;9.154;2023-06-05T12:30:17;2.15;;;1.60;;
71464;SDS011;59274;49.874;9.154;2023-06-05T12:32:43;3.08;;;1.50;;
71464;SDS011;59274;49.874;9.154;2023-06-05T12:35:19;2.65;;;1.50;;
71464;SDS011;59274;49.874;9.154;2023-06-05T12:37:45;2.77;;;1.40;;
71464;SDS011;59274;49.874;9.154;2023-06-05T12:40:12;2.83;;;1.40;;
71464;SDS011;59274;49.874;9.154;2023-06-05T12:42:39;2.83;;;1.30;;
71464;SDS011;59274;49.874;9.154;2023-06-05T12:45:08;3.60;;;1.70;;
71464;SDS011;59274;49.874;9.154;2023-06-05T12:47:35;2.80;;;1.58;;
71464;SDS011;59274;49.874;9.154;2023-06-05T12:50:02;3.60;;;1.57;;
71464;SDS011;59274;49.874;9.154;2023-06-05T12:52:32;2.42;;;1.45;;
71464;SDS011;59274;49.874;9.154;2023-06-05T12:55:01;2.60;;;1.45;;
71464;SDS011;59274;49.874;9.154;2023-06-05T12:57:28;2.88;;;1.63;;
71464;SDS011;59274;49.874;9.154;2023-06-05T12:59:54;3.77;;;1.60;;
71464;SDS011;59274;49.874;9.154;2023-06-05T13:02:20;3.33;;;1.50;;
71464;SDS011;59274;49.874;9.154;2023-06-05T13:04:46;3.20;;;1.80;;
71464;SDS011;59274;49.874;9.154;2023-06-05T13:07:12;2.53;;;1.50;;
71464;SDS011;59274;49.874;9.154;2023-06-05T13:09:37;3.57;;;1.80;;
71464;SDS011;59274;49.874;9.154;2023-06-05T13:12:03;4.53;;;1.73;;
71464;SDS011;59274;49.874;9.154;2023-06-05T13:14:32;2.85;;;1.52;;
71464;SDS011;59274;49.874;9.154;2023-06-05T13:16:58;2.45;;;1.63;;
71464;SDS011;59274;49.874;9.154;2023-06-05T13:19:24;3.47;;;1.80;;
71464;SDS011;59274;49.874;9.154;2023-06-05T13:21:52;2.33;;;1.70;;
71464;SDS011;59274;49.874;9.154;2023-06-05T13:24:18;4.13;;;1.88;;
71464;SDS011;59274;49.874;9.154;2023-06-05T13:26:44;3.45;;;1.95;;
71464;SDS011;59274;49.874;9.154;2023-06-05T13:29:12;3.07;;;1.60;;
71464;SDS011;59274;49.874;9.154;2023-06-05T13:31:38;3.13;;;2.00;;
71464;SDS011;59274;49.874;9.154;2023-06-05T13:34:05;3.50;;;1.85;;
71464;SDS011;59274;49.874;9.154;2023-06-05T13:36:31;5.15;;;1.98;;
71464;SDS011;59274;49.874;9.154;2023-06-05T13:38:56;3.53;;;1.70;;
71464;SDS011;59274;49.874;9.154;2023-06-05T13:41:22;3.10;;;1.90;;
71464;SDS011;59274;49.874;9.154;2023-06-05T13:43:48;2.87;;;2.00;;
71464;SDS011;59274;49.874;9.154;2023-06-05T13:46:13;3.93;;;2.20;;
71464;SDS011;59274;49.874;9.154;2023-06-05T13:48:38;3.35;;;1.88;;
71464;SDS011;59274;49.874;9.154;2023-06-05T13:51:04;2.67;;;1.80;;
71464;SDS011;59274;49.874;9.154;2023-06-05T13:53:30;3.27;;;2.10;;
71464;SDS011;59274;49.874;9.154;2023-06-05T13:56:02;3.97;;;2.15;;
71464;SDS011;59274;49.874;9.154;2023-06-05T13:58:28;3.00;;;2.00;;
71464;SDS011;59274;49.874;9.154;2023-06-05T14:00:53;2.20;;;1.70;;
71464;SDS011;59274;49.874;9.154;2023-06-05T14:03:20;3.33;;;1.80;;
71464;SDS011;59274;49.874;9.154;2023-06-05T14:05:45;4.63;;;2.03;;
71464;SDS011;59274;49.874;9.154;2023-06-05T14:08:11;3.25;;;1.83;;
71464;SDS011;59274;49.874;9.154;2023-06-05T14:10:36;3.23;;;1.97;;
71464;SDS011;59274;49.874;9.154;2023-06-05T14:13:02;2.67;;;1.90;;
71464;SDS011;59274;49.874;9.154;2023-06-05T14:15:29;3.08;;;2.00;;
71464;SDS011;59274;49.874;9.154;2023-06-05T14:17:57;3.53;;;1.90;;
71464;SDS011;59274;49.874;9.154;2023-06-05T14:20:22;2.40;;;1.80;;
71464;SDS011;59274;49.874;9.154;2023-06-05T14:22:48;3.50;;;2.00;;
71464;SDS011;59274;49.874;9.154;2023-06-05T14:25:17;3.37;;;2.00;;
71464;SDS011;59274;49.874;9.154;2023-06-05T14:27:43;3.92;;;2.30;;
71464;SDS011;59274;49.874;9.154;2023-06-05T14:30:08;3.57;;;1.87;;
71464;SDS011;59274;49.874;9.154;2023-06-05T14:32:34;4.35;;;1.67;;
71464;SDS011;59274;49.874;9.154;2023-06-05T14:35:01;2.65;;;1.42;;
71464;SDS011;59274;49.874;9.154;2023-06-05T14:37:27;3.10;;;1.60;;
71464;SDS011;59274;49.874;9.154;2023-06-05T14:39:52;3.53;;;1.40;;
71464;SDS011;59274;49.874;9.154;2023-06-05T14:42:18;2.47;;;1.37;;
71464;SDS011;59274;49.874;9.154;2023-06-05T14:44:43;5.35;;;1.50;;
71464;SDS011;59274;49.874;9.154;2023-06-05T14:47:08;2.70;;;1.70;;
71464;SDS011;59274;49.874;9.154;2023-06-05T14:49:34;3.23;;;1.73;;
71464;SDS011;59274;49.874;9.154;2023-06-05T14:51:59;4.00;;;2.20;;
71464;SDS011;59274;49.874;9.154;2023-06-05T14:54:25;5.70;;;2.10;;
71464;SDS011;59274;49.874;9.154;2023-06-05T14:56:50;3.00;;;1.97;;
71464;SDS011;59274;49.874;9.154;2023-06-05T14:59:16;4.97;;;2.43;;
71464;SDS011;59274;49.874;9.154;2023-06-05T15:01:41;2.77;;;2.03;;
71464;SDS011;59274;49.874;9.154;2023-06-05T15:04:07;3.27;;;2.20;;
71464;SDS011;59274;49.874;9.154;2023-06-05T15:06:32;3.50;;;1.90;;
71464;SDS011;59274;49.874;9.154;2023-06-05T15:08:58;4.40;;;1.60;;
71464;SDS011;59274;49.874;9.154;2023-06-05T15:11:23;3.30;;;1.87;;
71464;SDS011;59274;49.874;9.154;2023-06-05T15:13:48;3.00;;;1.60;;
71464;SDS011;59274;49.874;9.154;2023-06-05T15:16:14;4.07;;;1.60;;
71464;SDS011;59274;49.874;9.154;2023-06-05T15:18:39;3.20;;;1.73;;
71464;SDS011;59274;49.874;9.154;2023-06-05T15:21:05;2.80;;;1.63;;
71464;SDS011;59274;49.874;9.154;2023-06-05T15:23:30;3.50;;;1.70;;
71464;SDS011;59274;49.874;9.154;2023-06-05T15:25:56;2.80;;;1.60;;